sensor_id;sensor_type;location;lat;lon;timestamp;pressure;altitude;pressure_sealevel;temperature;humidity
18500;BME280;9379;52.134;11.576;2023-04-07T00:00:13;101195.72;;;8.48;61.06
18500;BME280;9379;52.134;11.576;2023-04-07T00:02:53;101194.44;;;8.41;60.52
18500;BME280;9379;52.134;11.576;2023-04-07T00:05:27;101225.16;;;8.82;59.92
18500;BME280;9379;52.134;11.576;2023-04-07T00:07:59;101197.66;;;8.46;62.00
18500;BME280;9379;52.134;11.576;2023-04-07T00:10:29;101204.91;;;8.56;61.27
18500;BME280;9379;52.134;11.576;2023-04-07T00:12:59;101191.44;;;8.08;62.94
18500;BME280;9379;52.134;11.576;2023-04-07T00:15:30;101192.72;;;8.15;62.74
18500;BME280;9379;52.134;11.576;2023-04-07T00:18:00;101197.91;;;8.16;63.58
18500;BME280;9379;52.134;11.576;2023-04-07T00:20:34;101200.78;;;8.01;63.59
18500;BME280;9379;52.134;11.576;2023-04-07T00:23:08;101186.69;;;8.64;61.96
18500;BME280;9379;52.134;11.576;2023-04-07T00:25:44;101193.56;;;8.28;60.58
18500;BME280;9379;52.134;11.576;2023-04-07T00:28:12;101185.63;;;8.66;60.90
18500;BME280;9379;52.134;11.576;2023-04-07T00:30:40;101189.03;;;8.56;59.53
18500;BME280;9379;52.134;11.576;2023-04-07T00:33:10;101181.28;;;8.27;60.84
18500;BME280;9379;52.134;11.576;2023-04-07T00:35:55;101203.09;;;8.18;60.49
18500;BME280;9379;52.134;11.576;2023-04-07T00:38:34;101195.28;;;8.42;60.37
18500;BME280;9379;52.134;11.576;2023-04-07T00:41:05;101186.28;;;8.44;61.18
18500;BME280;9379;52.134;11.576;2023-04-07T00:43:37;101178.75;;;8.51;61.77
18500;BME280;9379;52.134;11.576;2023-04-07T00:46:13;101172.00;;;8.47;60.50
18500;BME280;9379;52.134;11.576;2023-04-07T00:48:51;101184.41;;;8.46;60.30
18500;BME280;9379;52.134;11.576;2023-04-07T00:51:21;101179.16;;;8.07;61.23
18500;BME280;9379;52.134;11.576;2023-04-07T00:53:51;101164.34;;;7.92;61.00
18500;BME280;9379;52.134;11.576;2023-04-07T00:56:20;101154.69;;;7.65;61.94
18500;BME280;9379;52.134;11.576;2023-04-07T00:59:03;101174.53;;;8.10;62.50
18500;BME280;9379;52.134;11.576;2023-04-07T01:01:39;101160.16;;;7.75;61.29
18500;BME280;9379;52.134;11.576;2023-04-07T01:04:19;101173.72;;;7.70;62.24
18500;BME280;9379;52.134;11.576;2023-04-07T01:07:00;101165.75;;;7.57;61.58
18500;BME280;9379;52.134;11.576;2023-04-07T01:09:35;101166.97;;;7.12;62.86
18500;BME280;9379;52.134;11.576;2023-04-07T01:12:11;101176.31;;;7.18;63.56
18500;BME280;9379;52.134;11.576;2023-04-07T01:14:46;101159.69;;;7.43;63.17
18500;BME280;9379;52.134;11.576;2023-04-07T01:17:18;101162.72;;;7.37;62.65
18500;BME280;9379;52.134;11.576;2023-04-07T01:19:58;101149.47;;;7.24;62.74
18500;BME280;9379;52.134;11.576;2023-04-07T01:22:42;101151.19;;;7.38;62.46
18500;BME280;9379;52.134;11.576;2023-04-07T01:25:25;101152.84;;;7.53;62.13
18500;BME280;9379;52.134;11.576;2023-04-07T01:28:09;101132.56;;;6.99;62.72
18500;BME280;9379;52.134;11.576;2023-04-07T01:30:43;101154.91;;;7.08;62.68
18500;BME280;9379;52.134;11.576;2023-04-07T01:33:13;101152.66;;;7.02;63.03
18500;BME280;9379;52.134;11.576;2023-04-07T01:35:43;101162.28;;;6.62;64.17
18500;BME280;9379;52.134;11.576;2023-04-07T01:38:20;101163.34;;;7.00;63.98
18500;BME280;9379;52.134;11.576;2023-04-07T01:40:53;101144.44;;;7.34;63.58
18500;BME280;9379;52.134;11.576;2023-04-07T01:43:26;101152.41;;;7.46;64.56
18500;BME280;9379;52.134;11.576;2023-04-07T01:45:56;101151.13;;;7.52;65.65
18500;BME280;9379;52.134;11.576;2023-04-07T01:48:27;101141.63;;;7.62;65.65
18500;BME280;9379;52.134;11.576;2023-04-07T01:51:02;101144.78;;;7.42;66.84
18500;BME280;9379;52.134;11.576;2023-04-07T01:53:33;101160.78;;;7.53;65.12
18500;BME280;9379;52.134;11.576;2023-04-07T01:56:06;101150.00;;;7.29;64.42
18500;BME280;9379;52.134;11.576;2023-04-07T01:58:37;101140.59;;;7.25;64.33
18500;BME280;9379;52.134;11.576;2023-04-07T02:01:09;101149.09;;;7.30;65.59
18500;BME280;9379;52.134;11.576;2023-04-07T02:03:53;101144.22;;;7.37;65.17
18500;BME280;9379;52.134;11.576;2023-04-07T02:06:29;101150.97;;;7.28;64.08
18500;BME280;9379;52.134;11.576;2023-04-07T02:09:04;101168.50;;;7.29;65.49
18500;BME280;9379;52.134;11.576;2023-04-07T02:11:37;101163.69;;;7.36;66.48
18500;BME280;9379;52.134;11.576;2023-04-07T02:14:08;101146.16;;;7.47;64.81
18500;BME280;9379;52.134;11.576;2023-04-07T02:16:38;101137.72;;;7.28;63.65
18500;BME280;9379;52.134;11.576;2023-04-07T02:19:08;101156.94;;;7.44;62.51
18500;BME280;9379;52.134;11.576;2023-04-07T02:21:36;101137.19;;;7.23;64.31
18500;BME280;9379;52.134;11.576;2023-04-07T02:24:09;101146.59;;;7.54;63.25
18500;BME280;9379;52.134;11.576;2023-04-07T02:26:37;101133.25;;;7.16;62.54
18500;BME280;9379;52.134;11.576;2023-04-07T02:29:13;101153.34;;;7.45;63.76
18500;BME280;9379;52.134;11.576;2023-04-07T02:31:45;101139.03;;;7.35;64.54
18500;BME280;9379;52.134;11.576;2023-04-07T02:34:13;101146.69;;;7.52;63.72
18500;BME280;9379;52.134;11.576;2023-04-07T02:36:41;101148.63;;;7.23;66.18
18500;BME280;9379;52.134;11.576;2023-04-07T02:39:09;101143.13;;;7.26;65.61
18500;BME280;9379;52.134;11.576;2023-04-07T02:41:50;101131.81;;;7.24;64.20
18500;BME280;9379;52.134;11.576;2023-04-07T02:44:20;101144.44;;;7.34;65.07
18500;BME280;9379;52.134;11.576;2023-04-07T02:46:51;101128.50;;;7.48;63.46
18500;BME280;9379;52.134;11.576;2023-04-07T02:49:18;101132.44;;;7.55;64.49
18500;BME280;9379;52.134;11.576;2023-04-07T02:51:48;101158.63;;;7.45;64.63
18500;BME280;9379;52.134;11.576;2023-04-07T02:54:16;101143.28;;;7.11;66.94
18500;BME280;9379;52.134;11.576;2023-04-07T02:56:46;101134.44;;;7.24;65.46
18500;BME280;9379;52.134;11.576;2023-04-07T02:59:16;101139.97;;;6.80;66.79
18500;BME280;9379;52.134;11.576;2023-04-07T03:01:46;101153.84;;;6.69;69.20
18500;BME280;9379;52.134;11.576;2023-04-07T03:04:18;101129.13;;;6.29;69.07
18500;BME280;9379;52.134;11.576;2023-04-07T03:06:48;101149.75;;;6.23;68.94
18500;BME280;9379;52.134;11.576;2023-04-07T03:09:15;101136.16;;;6.71;69.18
18500;BME280;9379;52.134;11.576;2023-04-07T03:11:47;101141.06;;;6.63;66.93
18500;BME280;9379;52.134;11.576;2023-04-07T03:14:20;101142.78;;;6.22;68.97
18500;BME280;9379;52.134;11.576;2023-04-07T03:16:50;101123.84;;;6.15;68.51
18500;BME280;9379;52.134;11.576;2023-04-07T03:19:24;101124.97;;;6.25;69.85
18500;BME280;9379;52.134;11.576;2023-04-07T03:21:57;101148.59;;;6.12;70.01
18500;BME280;9379;52.134;11.576;2023-04-07T03:24:24;101132.66;;;6.00;69.75
18500;BME280;9379;52.134;11.576;2023-04-07T03:26:56;101139.56;;;6.17;70.13
18500;BME280;9379;52.134;11.576;2023-04-07T03:29:23;101110.91;;;5.96;69.85
18500;BME280;9379;52.134;11.576;2023-04-07T03:31:53;101116.56;;;6.04;70.21
18500;BME280;9379;52.134;11.576;2023-04-07T03:34:25;101114.78;;;6.05;71.28
18500;BME280;9379;52.134;11.576;2023-04-07T03:36:54;101119.31;;;6.17;70.45
18500;BME280;9379;52.134;11.576;2023-04-07T03:39:23;101137.28;;;5.96;69.65
18500;BME280;9379;52.134;11.576;2023-04-07T03:41:50;101122.31;;;5.67;70.53
18500;BME280;9379;52.134;11.576;2023-04-07T03:44:20;101139.38;;;5.91;71.30
18500;BME280;9379;52.134;11.576;2023-04-07T03:46:47;101149.94;;;6.05;70.98
18500;BME280;9379;52.134;11.576;2023-04-07T03:49:15;101121.97;;;5.73;70.64
18500;BME280;9379;52.134;11.576;2023-04-07T03:51:47;101160.84;;;5.99;70.39
18500;BME280;9379;52.134;11.576;2023-04-07T03:54:15;101142.84;;;5.62;71.77
18500;BME280;9379;52.134;11.576;2023-04-07T03:56:42;101145.19;;;5.66;71.57
18500;BME280;9379;52.134;11.576;2023-04-07T03:59:14;101129.81;;;5.44;72.50
18500;BME280;9379;52.134;11.576;2023-04-07T04:01:42;101126.53;;;5.55;71.16
18500;BME280;9379;52.134;11.576;2023-04-07T04:04:11;101162.47;;;6.30;70.62
18500;BME280;9379;52.134;11.576;2023-04-07T04:06:39;101145.28;;;5.65;70.61
18500;BME280;9379;52.134;11.576;2023-04-07T04:09:11;101151.38;;;5.81;69.51
18500;BME280;9379;52.134;11.576;2023-04-07T04:11:39;101151.06;;;6.30;69.47
18500;BME280;9379;52.134;11.576;2023-04-07T04:14:06;101153.31;;;6.36;70.04
18500;BME280;9379;52.134;11.576;2023-04-07T04:16:34;101172.47;;;6.39;68.50
18500;BME280;9379;52.134;11.576;2023-04-07T04:19:01;101133.72;;;6.11;69.20
18500;BME280;9379;52.134;11.576;2023-04-07T04:21:29;101132.59;;;6.16;67.16
18500;BME280;9379;52.134;11.576;2023-04-07T04:23:57;101137.28;;;6.25;68.40
18500;BME280;9379;52.134;11.576;2023-04-07T04:26:28;101126.84;;;6.09;67.82
18500;BME280;9379;52.134;11.576;2023-04-07T04:28:58;101134.41;;;5.85;69.76
18500;BME280;9379;52.134;11.576;2023-04-07T04:31:29;101134.22;;;5.74;70.87
18500;BME280;9379;52.134;11.576;2023-04-07T04:33:57;101127.88;;;5.62;70.97
18500;BME280;9379;52.134;11.576;2023-04-07T04:36:26;101161.34;;;6.06;70.60
18500;BME280;9379;52.134;11.576;2023-04-07T04:38:54;101138.69;;;6.02;70.11
18500;BME280;9379;52.134;11.576;2023-04-07T04:41:21;101172.66;;;6.22;67.61
18500;BME280;9379;52.134;11.576;2023-04-07T04:43:50;101167.66;;;6.03;66.71
18500;BME280;9379;52.134;11.576;2023-04-07T04:46:17;101172.94;;;6.18;66.48
18500;BME280;9379;52.134;11.576;2023-04-07T04:48:45;101166.72;;;6.33;66.07
18500;BME280;9379;52.134;11.576;2023-04-07T04:51:12;101148.03;;;6.07;66.21
18500;BME280;9379;52.134;11.576;2023-04-07T04:53:39;101160.41;;;6.50;66.93
18500;BME280;9379;52.134;11.576;2023-04-07T04:56:10;101151.53;;;5.94;68.84
18500;BME280;9379;52.134;11.576;2023-04-07T04:58:38;101140.59;;;6.00;70.63
18500;BME280;9379;52.134;11.576;2023-04-07T05:01:15;101166.91;;;5.85;68.10
18500;BME280;9379;52.134;11.576;2023-04-07T05:03:42;101152.25;;;5.66;67.15
18500;BME280;9379;52.134;11.576;2023-04-07T05:06:09;101173.59;;;6.21;66.56
18500;BME280;9379;52.134;11.576;2023-04-07T05:08:36;101161.59;;;6.01;67.51
18500;BME280;9379;52.134;11.576;2023-04-07T05:11:03;101164.28;;;6.30;66.17
18500;BME280;9379;52.134;11.576;2023-04-07T05:13:30;101172.09;;;6.03;67.82
18500;BME280;9379;52.134;11.576;2023-04-07T05:15:57;101155.88;;;6.23;67.09
18500;BME280;9379;52.134;11.576;2023-04-07T05:18:27;101175.22;;;6.38;65.28
18500;BME280;9379;52.134;11.576;2023-04-07T05:20:54;101140.97;;;6.08;64.61
18500;BME280;9379;52.134;11.576;2023-04-07T05:23:21;101165.69;;;6.21;64.81
18500;BME280;9379;52.134;11.576;2023-04-07T05:25:48;101168.03;;;6.40;65.60
18500;BME280;9379;52.134;11.576;2023-04-07T05:28:15;101160.97;;;6.40;66.16
18500;BME280;9379;52.134;11.576;2023-04-07T05:30:42;101175.56;;;6.46;65.31
18500;BME280;9379;52.134;11.576;2023-04-07T05:33:10;101177.94;;;6.51;66.32
18500;BME280;9379;52.134;11.576;2023-04-07T05:35:39;101179.06;;;6.32;66.15
18500;BME280;9379;52.134;11.576;2023-04-07T05:38:06;101183.97;;;6.53;65.41
18500;BME280;9379;52.134;11.576;2023-04-07T05:40:36;101162.38;;;6.46;63.97
18500;BME280;9379;52.134;11.576;2023-04-07T05:43:04;101150.13;;;6.45;65.16
18500;BME280;9379;52.134;11.576;2023-04-07T05:45:30;101168.38;;;6.77;65.17
18500;BME280;9379;52.134;11.576;2023-04-07T05:48:04;101157.50;;;6.40;65.94
18500;BME280;9379;52.134;11.576;2023-04-07T05:50:31;101189.81;;;6.29;68.31
18500;BME280;9379;52.134;11.576;2023-04-07T05:53:08;101176.34;;;6.62;67.74
18500;BME280;9379;52.134;11.576;2023-04-07T05:55:36;101184.53;;;7.13;64.62
18500;BME280;9379;52.134;11.576;2023-04-07T05:58:05;101184.78;;;7.23;63.80
18500;BME280;9379;52.134;11.576;2023-04-07T06:00:37;101171.63;;;7.36;64.00
18500;BME280;9379;52.134;11.576;2023-04-07T06:03:05;101162.94;;;7.34;64.28
18500;BME280;9379;52.134;11.576;2023-04-07T06:05:33;101204.44;;;7.85;63.07
18500;BME280;9379;52.134;11.576;2023-04-07T06:08:04;101182.94;;;7.65;63.64
18500;BME280;9379;52.134;11.576;2023-04-07T06:10:31;101174.81;;;7.93;62.88
18500;BME280;9379;52.134;11.576;2023-04-07T06:13:01;101204.50;;;8.24;62.59
18500;BME280;9379;52.134;11.576;2023-04-07T06:15:29;101211.66;;;8.22;63.53
18500;BME280;9379;52.134;11.576;2023-04-07T06:17:56;101192.09;;;8.24;64.14
18500;BME280;9379;52.134;11.576;2023-04-07T06:20:24;101176.41;;;8.21;64.60
18500;BME280;9379;52.134;11.576;2023-04-07T06:22:52;101169.84;;;8.01;64.12
18500;BME280;9379;52.134;11.576;2023-04-07T06:25:23;101209.88;;;8.86;64.47
18500;BME280;9379;52.134;11.576;2023-04-07T06:28:00;101172.97;;;10.25;60.87
18500;BME280;9379;52.134;11.576;2023-04-07T06:30:28;101173.59;;;10.62;58.01
18500;BME280;9379;52.134;11.576;2023-04-07T06:32:58;101188.31;;;11.75;55.72
18500;BME280;9379;52.134;11.576;2023-04-07T06:35:26;101193.88;;;12.95;52.81
18500;BME280;9379;52.134;11.576;2023-04-07T06:38:05;101174.69;;;12.10;53.32
18500;BME280;9379;52.134;11.576;2023-04-07T06:40:38;101203.53;;;10.30;57.53
18500;BME280;9379;52.134;11.576;2023-04-07T06:43:05;101196.47;;;10.18;58.54
18500;BME280;9379;52.134;11.576;2023-04-07T06:45:33;101193.66;;;10.32;59.11
18500;BME280;9379;52.134;11.576;2023-04-07T06:48:06;101200.25;;;10.27;57.49
18500;BME280;9379;52.134;11.576;2023-04-07T06:50:35;101201.78;;;10.18;59.09
18500;BME280;9379;52.134;11.576;2023-04-07T06:53:05;101183.31;;;10.16;57.89
18500;BME280;9379;52.134;11.576;2023-04-07T06:55:34;101202.00;;;10.04;59.25
18500;BME280;9379;52.134;11.576;2023-04-07T06:58:04;101204.16;;;9.99;59.28
18500;BME280;9379;52.134;11.576;2023-04-07T07:00:38;101215.97;;;9.59;60.91
18500;BME280;9379;52.134;11.576;2023-04-07T07:03:08;101193.03;;;9.11;62.19
18500;BME280;9379;52.134;11.576;2023-04-07T07:05:35;101188.66;;;9.81;60.44
18500;BME280;9379;52.134;11.576;2023-04-07T07:08:03;101193.88;;;10.40;59.96
18500;BME280;9379;52.134;11.576;2023-04-07T07:10:32;101198.19;;;10.19;59.36
18500;BME280;9379;52.134;11.576;2023-04-07T07:13:01;101210.53;;;9.85;57.19
18500;BME280;9379;52.134;11.576;2023-04-07T07:15:30;101196.06;;;9.89;59.35
18500;BME280;9379;52.134;11.576;2023-04-07T07:17:58;101200.44;;;9.18;60.09
18500;BME280;9379;52.134;11.576;2023-04-07T07:20:25;101207.41;;;9.91;60.92
18500;BME280;9379;52.134;11.576;2023-04-07T07:22:53;101198.72;;;9.89;59.46
18500;BME280;9379;52.134;11.576;2023-04-07T07:25:35;101208.00;;;9.94;57.56
18500;BME280;9379;52.134;11.576;2023-04-07T07:28:06;101213.31;;;9.59;58.10
18500;BME280;9379;52.134;11.576;2023-04-07T07:30:38;101195.13;;;9.66;58.34
18500;BME280;9379;52.134;11.576;2023-04-07T07:33:15;101203.97;;;10.13;56.42
18500;BME280;9379;52.134;11.576;2023-04-07T07:35:43;101213.59;;;10.71;55.46
18500;BME280;9379;52.134;11.576;2023-04-07T07:38:12;101212.47;;;10.40;57.25
18500;BME280;9379;52.134;11.576;2023-04-07T07:40:42;101212.38;;;10.31;56.57
18500;BME280;9379;52.134;11.576;2023-04-07T07:43:31;101193.13;;;9.81;55.96
18500;BME280;9379;52.134;11.576;2023-04-07T07:46:09;101232.06;;;10.04;55.89
18500;BME280;9379;52.134;11.576;2023-04-07T07:48:53;101229.78;;;10.46;55.56
18500;BME280;9379;52.134;11.576;2023-04-07T07:51:36;101208.69;;;9.74;55.27
18500;BME280;9379;52.134;11.576;2023-04-07T07:54:04;101213.44;;;9.58;56.58
18500;BME280;9379;52.134;11.576;2023-04-07T07:56:32;101213.25;;;9.72;56.82
18500;BME280;9379;52.134;11.576;2023-04-07T07:59:10;101206.88;;;10.21;55.90
18500;BME280;9379;52.134;11.576;2023-04-07T08:01:44;101206.84;;;10.10;55.10
18500;BME280;9379;52.134;11.576;2023-04-07T08:04:24;101211.41;;;10.32;54.83
18500;BME280;9379;52.134;11.576;2023-04-07T08:07:01;101217.34;;;10.69;54.41
18500;BME280;9379;52.134;11.576;2023-04-07T08:09:42;101227.13;;;10.46;55.00
18500;BME280;9379;52.134;11.576;2023-04-07T08:12:18;101225.31;;;10.46;54.26
18500;BME280;9379;52.134;11.576;2023-04-07T08:14:50;101215.16;;;10.51;54.68
18500;BME280;9379;52.134;11.576;2023-04-07T08:17:28;101230.50;;;10.48;54.89
18500;BME280;9379;52.134;11.576;2023-04-07T08:19:59;101214.16;;;10.30;55.03
18500;BME280;9379;52.134;11.576;2023-04-07T08:22:31;101205.63;;;10.60;54.53
18500;BME280;9379;52.134;11.576;2023-04-07T08:25:06;101210.47;;;10.66;53.64
18500;BME280;9379;52.134;11.576;2023-04-07T08:27:55;101244.06;;;10.78;53.42
18500;BME280;9379;52.134;11.576;2023-04-07T08:30:41;101224.31;;;11.15;54.30
18500;BME280;9379;52.134;11.576;2023-04-07T08:33:14;101212.88;;;10.80;53.00
18500;BME280;9379;52.134;11.576;2023-04-07T08:35:47;101218.44;;;10.89;52.75
18500;BME280;9379;52.134;11.576;2023-04-07T08:38:24;101229.16;;;10.87;52.55
18500;BME280;9379;52.134;11.576;2023-04-07T08:41:29;101219.13;;;11.13;54.38
18500;BME280;9379;52.134;11.576;2023-04-07T08:44:16;101218.63;;;11.08;52.63
18500;BME280;9379;52.134;11.576;2023-04-07T08:49:49;101221.22;;;11.42;52.05
18500;BME280;9379;52.134;11.576;2023-04-07T08:52:23;101253.53;;;11.48;51.87
18500;BME280;9379;52.134;11.576;2023-04-07T08:55:16;101218.75;;;11.61;51.86
18500;BME280;9379;52.134;11.576;2023-04-07T08:57:55;101227.75;;;11.81;51.74
18500;BME280;9379;52.134;11.576;2023-04-07T09:00:41;101244.06;;;11.87;52.40
18500;BME280;9379;52.134;11.576;2023-04-07T09:03:17;101230.06;;;11.85;49.47
18500;BME280;9379;52.134;11.576;2023-04-07T09:05:54;101236.09;;;11.33;50.73
18500;BME280;9379;52.134;11.576;2023-04-07T09:08:28;101234.56;;;11.30;50.84
18500;BME280;9379;52.134;11.576;2023-04-07T09:11:15;101225.44;;;11.44;50.32
18500;BME280;9379;52.134;11.576;2023-04-07T09:14:05;101238.13;;;12.16;50.04
18500;BME280;9379;52.134;11.576;2023-04-07T09:16:52;101230.50;;;11.58;50.09
18500;BME280;9379;52.134;11.576;2023-04-07T09:19:32;101221.59;;;11.69;50.23
18500;BME280;9379;52.134;11.576;2023-04-07T09:22:26;101220.41;;;11.30;51.20
18500;BME280;9379;52.134;11.576;2023-04-07T09:25:14;101225.22;;;11.79;51.06
18500;BME280;9379;52.134;11.576;2023-04-07T09:27:58;101221.69;;;12.32;50.32
18500;BME280;9379;52.134;11.576;2023-04-07T09:30:40;101242.09;;;12.21;50.12
18500;BME280;9379;52.134;11.576;2023-04-07T09:33:38;101206.53;;;12.11;51.29
18500;BME280;9379;52.134;11.576;2023-04-07T09:36:16;101202.94;;;12.43;50.00
18500;BME280;9379;52.134;11.576;2023-04-07T09:39:12;101215.63;;;12.30;50.05
18500;BME280;9379;52.134;11.576;2023-04-07T09:41:59;101236.88;;;12.41;50.44
18500;BME280;9379;52.134;11.576;2023-04-07T09:44:43;101205.22;;;12.26;49.30
18500;BME280;9379;52.134;11.576;2023-04-07T09:47:24;101200.50;;;12.30;49.69
18500;BME280;9379;52.134;11.576;2023-04-07T09:50:10;101204.19;;;11.97;49.40
18500;BME280;9379;52.134;11.576;2023-04-07T09:53:06;101205.25;;;12.06;49.32
18500;BME280;9379;52.134;11.576;2023-04-07T09:55:56;101215.72;;;12.79;48.76
18500;BME280;9379;52.134;11.576;2023-04-07T09:58:39;101227.22;;;12.40;48.61
18500;BME280;9379;52.134;11.576;2023-04-07T10:01:19;101232.06;;;13.26;47.94
18500;BME280;9379;52.134;11.576;2023-04-07T10:04:03;101187.25;;;12.49;48.68
18500;BME280;9379;52.134;11.576;2023-04-07T10:06:38;101214.00;;;13.09;49.43
18500;BME280;9379;52.134;11.576;2023-04-07T10:12:27;101204.97;;;12.60;48.08
18500;BME280;9379;52.134;11.576;2023-04-07T10:18:20;101218.34;;;12.70;49.07
18500;BME280;9379;52.134;11.576;2023-04-07T10:20:59;101220.66;;;12.84;49.44
18500;BME280;9379;52.134;11.576;2023-04-07T10:23:55;101209.31;;;12.92;47.99
18500;BME280;9379;52.134;11.576;2023-04-07T10:26:37;101225.09;;;13.04;47.48
18500;BME280;9379;52.134;11.576;2023-04-07T10:29:26;101217.97;;;12.84;48.03
18500;BME280;9379;52.134;11.576;2023-04-07T10:32:03;101228.31;;;12.68;49.70
18500;BME280;9379;52.134;11.576;2023-04-07T10:35:05;101235.63;;;13.75;49.11
18500;BME280;9379;52.134;11.576;2023-04-07T10:38:23;101202.78;;;13.15;47.33
18500;BME280;9379;52.134;11.576;2023-04-07T10:40:57;101198.41;;;13.04;47.67
18500;BME280;9379;52.134;11.576;2023-04-07T10:43:46;101200.97;;;12.75;47.91
18500;BME280;9379;52.134;11.576;2023-04-07T10:46:19;101240.38;;;13.42;48.95
18500;BME280;9379;52.134;11.576;2023-04-07T10:49:10;101218.91;;;13.73;47.12
18500;BME280;9379;52.134;11.576;2023-04-07T10:55:36;101199.59;;;13.31;48.52
18500;BME280;9379;52.134;11.576;2023-04-07T10:58:32;101200.34;;;13.62;47.09
18500;BME280;9379;52.134;11.576;2023-04-07T11:01:35;101197.81;;;13.31;47.39
18500;BME280;9379;52.134;11.576;2023-04-07T11:04:21;101239.00;;;13.67;48.89
18500;BME280;9379;52.134;11.576;2023-04-07T11:07:00;101219.16;;;13.51;47.46
18500;BME280;9379;52.134;11.576;2023-04-07T11:09:35;101205.66;;;13.52;46.28
18500;BME280;9379;52.134;11.576;2023-04-07T11:12:21;101197.75;;;14.09;45.47
18500;BME280;9379;52.134;11.576;2023-04-07T11:15:23;101200.44;;;14.18;44.93
18500;BME280;9379;52.134;11.576;2023-04-07T11:18:32;101199.91;;;13.47;46.76
18500;BME280;9379;52.134;11.576;2023-04-07T11:21:19;101211.44;;;13.77;45.00
18500;BME280;9379;52.134;11.576;2023-04-07T11:24:00;101223.78;;;14.16;47.53
18500;BME280;9379;52.134;11.576;2023-04-07T11:26:43;101204.25;;;14.06;46.34
18500;BME280;9379;52.134;11.576;2023-04-07T11:29:29;101182.47;;;13.91;45.71
18500;BME280;9379;52.134;11.576;2023-04-07T11:32:12;101194.41;;;14.63;47.43
18500;BME280;9379;52.134;11.576;2023-04-07T11:34:55;101205.31;;;14.32;46.17
18500;BME280;9379;52.134;11.576;2023-04-07T11:37:34;101211.84;;;14.67;46.04
18500;BME280;9379;52.134;11.576;2023-04-07T11:40:43;101216.25;;;14.96;46.31
18500;BME280;9379;52.134;11.576;2023-04-07T11:43:30;101186.19;;;14.74;45.05
18500;BME280;9379;52.134;11.576;2023-04-07T11:46:22;101188.22;;;14.90;45.07
18500;BME280;9379;52.134;11.576;2023-04-07T11:49:24;101188.47;;;15.42;44.53
18500;BME280;9379;52.134;11.576;2023-04-07T11:52:16;101190.38;;;14.40;46.75
18500;BME280;9379;52.134;11.576;2023-04-07T11:55:00;101182.72;;;14.64;47.75
18500;BME280;9379;52.134;11.576;2023-04-07T12:00:27;101205.09;;;14.73;46.21
18500;BME280;9379;52.134;11.576;2023-04-07T12:03:18;101184.47;;;15.46;44.48
18500;BME280;9379;52.134;11.576;2023-04-07T12:09:00;101189.06;;;14.91;45.81
18500;BME280;9379;52.134;11.576;2023-04-07T12:11:47;101192.63;;;14.81;45.39
18500;BME280;9379;52.134;11.576;2023-04-07T12:14:20;101197.22;;;15.62;44.83
18500;BME280;9379;52.134;11.576;2023-04-07T12:16:57;101195.25;;;14.07;47.58
18500;BME280;9379;52.134;11.576;2023-04-07T12:19:39;101198.91;;;14.06;45.75
18500;BME280;9379;52.134;11.576;2023-04-07T12:22:43;101207.06;;;13.85;48.27
18500;BME280;9379;52.134;11.576;2023-04-07T12:25:21;101201.47;;;13.69;47.11
18500;BME280;9379;52.134;11.576;2023-04-07T12:27:54;101221.41;;;14.04;46.62
18500;BME280;9379;52.134;11.576;2023-04-07T12:30:30;101191.25;;;14.21;46.70
18500;BME280;9379;52.134;11.576;2023-04-07T12:33:14;101211.31;;;13.68;46.26
18500;BME280;9379;52.134;11.576;2023-04-07T12:35:53;101212.41;;;13.66;47.28
18500;BME280;9379;52.134;11.576;2023-04-07T12:39:00;101215.84;;;14.44;45.84
18500;BME280;9379;52.134;11.576;2023-04-07T12:41:35;101201.38;;;14.37;46.77
18500;BME280;9379;52.134;11.576;2023-04-07T12:44:09;101215.38;;;13.92;44.94
18500;BME280;9379;52.134;11.576;2023-04-07T12:46:36;101222.94;;;14.25;45.60
18500;BME280;9379;52.134;11.576;2023-04-07T12:49:03;101205.28;;;14.52;48.19
18500;BME280;9379;52.134;11.576;2023-04-07T12:51:30;101212.94;;;14.27;46.20
18500;BME280;9379;52.134;11.576;2023-04-07T12:53:58;101226.88;;;14.21;45.85
18500;BME280;9379;52.134;11.576;2023-04-07T12:56:25;101206.72;;;14.46;45.41
18500;BME280;9379;52.134;11.576;2023-04-07T12:58:54;101200.13;;;14.78;46.19
18500;BME280;9379;52.134;11.576;2023-04-07T13:01:22;101197.72;;;15.30;45.50
18500;BME280;9379;52.134;11.576;2023-04-07T13:03:49;101212.00;;;15.21;44.71
18500;BME280;9379;52.134;11.576;2023-04-07T13:06:16;101208.66;;;14.54;47.47
18500;BME280;9379;52.134;11.576;2023-04-07T13:08:43;101214.47;;;14.30;45.75
18500;BME280;9379;52.134;11.576;2023-04-07T13:11:10;101209.59;;;14.16;46.87
18500;BME280;9379;52.134;11.576;2023-04-07T13:13:37;101205.63;;;14.76;47.47
18500;BME280;9379;52.134;11.576;2023-04-07T13:16:06;101210.09;;;14.48;47.16
18500;BME280;9379;52.134;11.576;2023-04-07T13:18:33;101208.03;;;14.13;47.15
18500;BME280;9379;52.134;11.576;2023-04-07T13:21:01;101206.59;;;14.48;47.02
18500;BME280;9379;52.134;11.576;2023-04-07T13:23:29;101205.81;;;14.65;47.50
18500;BME280;9379;52.134;11.576;2023-04-07T13:25:56;101209.41;;;14.37;46.92
18500;BME280;9379;52.134;11.576;2023-04-07T13:28:23;101217.50;;;14.64;46.70
18500;BME280;9379;52.134;11.576;2023-04-07T13:30:50;101205.44;;;14.41;47.69
18500;BME280;9379;52.134;11.576;2023-04-07T13:33:18;101203.13;;;13.99;48.22
18500;BME280;9379;52.134;11.576;2023-04-07T13:35:45;101219.88;;;14.01;49.96
18500;BME280;9379;52.134;11.576;2023-04-07T13:38:12;101210.25;;;14.27;48.67
18500;BME280;9379;52.134;11.576;2023-04-07T13:40:40;101194.09;;;14.19;48.16
18500;BME280;9379;52.134;11.576;2023-04-07T13:43:09;101195.63;;;14.22;48.22
18500;BME280;9379;52.134;11.576;2023-04-07T13:45:37;101207.59;;;14.18;48.00
18500;BME280;9379;52.134;11.576;2023-04-07T13:48:04;101209.38;;;14.46;47.96
18500;BME280;9379;52.134;11.576;2023-04-07T13:50:34;101202.91;;;14.49;48.16
18500;BME280;9379;52.134;11.576;2023-04-07T13:53:01;101222.81;;;13.88;47.55